Flight Sim Network - KDMA Airport Info

    KDMA (Davis Monthan Air Force Base)  Login to use Map Selector
   

  RUNWAY INFORMATION    |    Airport Elevation : 2704ft    |    LAT : 32.1665000916  /  LON : -110.883003235
Runway Number 12 / 30 Runway Width 200' Runway Length 13643'
Lighted Runway Yes Runway StatusOpen Runway Surface Concrete
  CLOSE ALTERNATE AIRPORTS
ICAODistanceAirport NameLongest RWRW SurfaceMAP
KTUS4NMTucson International Airport10998FTAsphalt
KRYN15NMRyan Field5500FTAsphalt
57AZ18NMLa Cholla Airpark4500FTAsphalt
14AZ20NMRuby Star Airpark4300FTAsphalt
35AZ20NMContinental Airport3500FTAsphalt
KAVQ22NMMarana Regional Airport6903FTAsphalt
4AZ023NMPalm Valley Tucson Airport4000FTGrass
0AZ124NMTaylor Field3250FTGrass
1AZ925NMBiosphere 2 Landing Field4250FTGrass
5AZ626NMEmpire Ranch4500FTGrass
  AIRPORT WEATHER
95°F | 35°C
Temperature
23%
Humidity
30" | 1010mb
Pressure
10sm
Visibility
VFR
Flight Rules
CLR
Initial Clouds
FAIR
Conditions
Wind Info
7/23/24 17:55Z
Updated

KDMA 231755Z 10003KT 10SM CLR 36/12 A3001 RMK AO2A SLP109 T03550118 10356 20280 57005 $
  AIRPORT FREQUENCIES
NameFrequency
CLEARANCE121.800
GROUND121.800
TOWER118.850
APPROACH119.400
DEPARTURE119.400
IDMA (RWY 30)109.300

Powered by Virtual Airlines Manager